sensor_id;sensor_type;location;lat;lon;timestamp;P1;durP1;ratioP1;P2;durP2;ratioP2
65558;SDS011;52203;51.998;5.140;2023-04-10T00:01:00;19.67;;;10.07;;
65558;SDS011;52203;51.998;5.140;2023-04-10T00:03:25;18.75;;;9.20;;
65558;SDS011;52203;51.998;5.140;2023-04-10T00:05:52;17.42;;;9.57;;
65558;SDS011;52203;51.998;5.140;2023-04-10T00:08:19;21.15;;;10.00;;
65558;SDS011;52203;51.998;5.140;2023-04-10T00:10:47;19.73;;;10.20;;
65558;SDS011;52203;51.998;5.140;2023-04-10T00:13:13;20.23;;;9.73;;
65558;SDS011;52203;51.998;5.140;2023-04-10T00:15:39;18.48;;;9.20;;
65558;SDS011;52203;51.998;5.140;2023-04-10T00:18:05;17.73;;;9.55;;
65558;SDS011;52203;51.998;5.140;2023-04-10T00:20:31;19.65;;;9.80;;
65558;SDS011;52203;51.998;5.140;2023-04-10T00:22:56;19.90;;;9.55;;
65558;SDS011;52203;51.998;5.140;2023-04-10T00:25:22;15.98;;;9.15;;
65558;SDS011;52203;51.998;5.140;2023-04-10T00:27:47;16.73;;;9.15;;
65558;SDS011;52203;51.998;5.140;2023-04-10T00:30:13;17.60;;;9.20;;
65558;SDS011;52203;51.998;5.140;2023-04-10T00:32:38;18.27;;;9.27;;
65558;SDS011;52203;51.998;5.140;2023-04-10T00:35:04;15.77;;;8.50;;
65558;SDS011;52203;51.998;5.140;2023-04-10T00:37:31;17.58;;;9.07;;
65558;SDS011;52203;51.998;5.140;2023-04-10T00:39:56;17.33;;;8.65;;
65558;SDS011;52203;51.998;5.140;2023-04-10T00:42:22;17.75;;;8.60;;
65558;SDS011;52203;51.998;5.140;2023-04-10T00:44:47;16.33;;;8.65;;
65558;SDS011;52203;51.998;5.140;2023-04-10T00:47:13;14.82;;;8.48;;
65558;SDS011;52203;51.998;5.140;2023-04-10T00:49:39;18.38;;;9.40;;
65558;SDS011;52203;51.998;5.140;2023-04-10T00:52:06;17.90;;;8.52;;
65558;SDS011;52203;51.998;5.140;2023-04-10T00:54:31;19.85;;;9.05;;
65558;SDS011;52203;51.998;5.140;2023-04-10T00:56:58;17.05;;;8.98;;
65558;SDS011;52203;51.998;5.140;2023-04-10T00:59:24;17.00;;;7.88;;
65558;SDS011;52203;51.998;5.140;2023-04-10T01:01:50;17.08;;;8.90;;
65558;SDS011;52203;51.998;5.140;2023-04-10T01:04:15;18.08;;;8.95;;
65558;SDS011;52203;51.998;5.140;2023-04-10T01:06:58;15.23;;;7.78;;
65558;SDS011;52203;51.998;5.140;2023-04-10T01:09:49;17.52;;;8.35;;
65558;SDS011;52203;51.998;5.140;2023-04-10T01:15:17;16.63;;;7.93;;
65558;SDS011;52203;51.998;5.140;2023-04-10T01:17:49;16.08;;;7.75;;
65558;SDS011;52203;51.998;5.140;2023-04-10T01:20:30;16.15;;;8.70;;
65558;SDS011;52203;51.998;5.140;2023-04-10T01:31:00;15.55;;;6.78;;
65558;SDS011;52203;51.998;5.140;2023-04-10T01:33:28;12.05;;;6.68;;
65558;SDS011;52203;51.998;5.140;2023-04-10T01:36:04;14.15;;;7.20;;
65558;SDS011;52203;51.998;5.140;2023-04-10T01:38:32;14.60;;;7.15;;
65558;SDS011;52203;51.998;5.140;2023-04-10T01:41:00;17.55;;;7.85;;
65558;SDS011;52203;51.998;5.140;2023-04-10T01:43:26;13.07;;;6.88;;
65558;SDS011;52203;51.998;5.140;2023-04-10T01:45:55;12.80;;;7.38;;
65558;SDS011;52203;51.998;5.140;2023-04-10T01:48:22;12.02;;;6.47;;
65558;SDS011;52203;51.998;5.140;2023-04-10T01:50:48;13.25;;;6.45;;
65558;SDS011;52203;51.998;5.140;2023-04-10T01:53:15;15.38;;;6.78;;
65558;SDS011;52203;51.998;5.140;2023-04-10T01:55:41;13.23;;;6.72;;
65558;SDS011;52203;51.998;5.140;2023-04-10T01:58:07;15.25;;;6.60;;
65558;SDS011;52203;51.998;5.140;2023-04-10T02:00:40;12.68;;;6.50;;
65558;SDS011;52203;51.998;5.140;2023-04-10T02:03:07;13.07;;;6.70;;
65558;SDS011;52203;51.998;5.140;2023-04-10T02:05:40;12.07;;;6.85;;
65558;SDS011;52203;51.998;5.140;2023-04-10T02:08:17;13.27;;;6.72;;
65558;SDS011;52203;51.998;5.140;2023-04-10T02:11:03;13.70;;;6.82;;
65558;SDS011;52203;51.998;5.140;2023-04-10T02:13:41;12.82;;;6.35;;
65558;SDS011;52203;51.998;5.140;2023-04-10T02:16:07;14.85;;;7.03;;
65558;SDS011;52203;51.998;5.140;2023-04-10T02:18:34;12.10;;;6.60;;
65558;SDS011;52203;51.998;5.140;2023-04-10T02:21:02;12.55;;;6.38;;
65558;SDS011;52203;51.998;5.140;2023-04-10T02:23:28;12.35;;;6.43;;
65558;SDS011;52203;51.998;5.140;2023-04-10T02:25:53;12.48;;;6.72;;
65558;SDS011;52203;51.998;5.140;2023-04-10T02:28:21;12.43;;;6.65;;
65558;SDS011;52203;51.998;5.140;2023-04-10T02:30:46;10.90;;;6.18;;
65558;SDS011;52203;51.998;5.140;2023-04-10T02:33:12;10.18;;;5.78;;
65558;SDS011;52203;51.998;5.140;2023-04-10T02:35:37;14.25;;;6.97;;
65558;SDS011;52203;51.998;5.140;2023-04-10T02:38:03;13.93;;;6.68;;
65558;SDS011;52203;51.998;5.140;2023-04-10T02:40:28;10.55;;;6.88;;
65558;SDS011;52203;51.998;5.140;2023-04-10T02:42:54;11.45;;;6.05;;
65558;SDS011;52203;51.998;5.140;2023-04-10T02:45:20;13.15;;;6.13;;
65558;SDS011;52203;51.998;5.140;2023-04-10T02:47:45;14.73;;;7.28;;
65558;SDS011;52203;51.998;5.140;2023-04-10T02:50:11;12.07;;;6.00;;
65558;SDS011;52203;51.998;5.140;2023-04-10T02:52:36;12.82;;;5.90;;
65558;SDS011;52203;51.998;5.140;2023-04-10T02:55:02;13.20;;;6.15;;
65558;SDS011;52203;51.998;5.140;2023-04-10T02:57:27;12.70;;;6.55;;
65558;SDS011;52203;51.998;5.140;2023-04-10T02:59:53;13.05;;;6.43;;
65558;SDS011;52203;51.998;5.140;2023-04-10T03:02:18;14.43;;;7.05;;
65558;SDS011;52203;51.998;5.140;2023-04-10T03:04:44;12.35;;;6.60;;
65558;SDS011;52203;51.998;5.140;2023-04-10T03:07:09;13.52;;;7.13;;
65558;SDS011;52203;51.998;5.140;2023-04-10T03:09:35;14.55;;;6.72;;
65558;SDS011;52203;51.998;5.140;2023-04-10T03:12:00;11.45;;;6.38;;
65558;SDS011;52203;51.998;5.140;2023-04-10T03:14:26;13.73;;;6.72;;
65558;SDS011;52203;51.998;5.140;2023-04-10T03:16:52;12.55;;;6.65;;
65558;SDS011;52203;51.998;5.140;2023-04-10T03:19:17;13.77;;;7.05;;
65558;SDS011;52203;51.998;5.140;2023-04-10T03:21:44;12.82;;;6.50;;
65558;SDS011;52203;51.998;5.140;2023-04-10T03:24:10;11.63;;;6.13;;
65558;SDS011;52203;51.998;5.140;2023-04-10T03:26:35;13.00;;;6.65;;
65558;SDS011;52203;51.998;5.140;2023-04-10T03:29:01;12.95;;;6.72;;
65558;SDS011;52203;51.998;5.140;2023-04-10T03:31:26;14.52;;;7.00;;
65558;SDS011;52203;51.998;5.140;2023-04-10T03:33:52;12.63;;;6.38;;
65558;SDS011;52203;51.998;5.140;2023-04-10T03:36:17;14.18;;;6.57;;
65558;SDS011;52203;51.998;5.140;2023-04-10T03:38:43;12.98;;;7.22;;
65558;SDS011;52203;51.998;5.140;2023-04-10T03:41:08;11.30;;;6.03;;
65558;SDS011;52203;51.998;5.140;2023-04-10T03:43:35;12.70;;;6.80;;
65558;SDS011;52203;51.998;5.140;2023-04-10T03:46:01;11.68;;;6.28;;
65558;SDS011;52203;51.998;5.140;2023-04-10T03:48:26;13.27;;;6.60;;
65558;SDS011;52203;51.998;5.140;2023-04-10T03:50:54;12.93;;;6.82;;
65558;SDS011;52203;51.998;5.140;2023-04-10T03:53:20;11.15;;;6.38;;
65558;SDS011;52203;51.998;5.140;2023-04-10T03:55:45;13.60;;;6.80;;
65558;SDS011;52203;51.998;5.140;2023-04-10T03:58:11;10.80;;;6.40;;
65558;SDS011;52203;51.998;5.140;2023-04-10T04:00:37;11.82;;;6.38;;
65558;SDS011;52203;51.998;5.140;2023-04-10T04:03:02;11.98;;;6.35;;
65558;SDS011;52203;51.998;5.140;2023-04-10T04:05:29;11.85;;;6.72;;
65558;SDS011;52203;51.998;5.140;2023-04-10T04:07:56;11.98;;;6.25;;
65558;SDS011;52203;51.998;5.140;2023-04-10T04:10:22;11.43;;;6.07;;
65558;SDS011;52203;51.998;5.140;2023-04-10T04:12:48;13.13;;;6.22;;
65558;SDS011;52203;51.998;5.140;2023-04-10T04:15:13;11.13;;;5.78;;
65558;SDS011;52203;51.998;5.140;2023-04-10T04:17:39;15.57;;;7.15;;
65558;SDS011;52203;51.998;5.140;2023-04-10T04:20:05;11.45;;;6.45;;
65558;SDS011;52203;51.998;5.140;2023-04-10T04:22:31;11.35;;;5.53;;
65558;SDS011;52203;51.998;5.140;2023-04-10T04:24:57;12.43;;;6.28;;
65558;SDS011;52203;51.998;5.140;2023-04-10T04:27:22;11.15;;;6.13;;
65558;SDS011;52203;51.998;5.140;2023-04-10T04:29:47;11.43;;;6.00;;
65558;SDS011;52203;51.998;5.140;2023-04-10T04:32:13;9.45;;;5.57;;
65558;SDS011;52203;51.998;5.140;2023-04-10T04:34:39;13.43;;;6.20;;
65558;SDS011;52203;51.998;5.140;2023-04-10T04:37:04;10.10;;;6.20;;
65558;SDS011;52203;51.998;5.140;2023-04-10T04:39:30;10.85;;;5.63;;
65558;SDS011;52203;51.998;5.140;2023-04-10T04:41:55;11.73;;;6.40;;
65558;SDS011;52203;51.998;5.140;2023-04-10T04:44:21;12.55;;;6.10;;
65558;SDS011;52203;51.998;5.140;2023-04-10T04:46:46;12.18;;;5.95;;
65558;SDS011;52203;51.998;5.140;2023-04-10T04:49:12;12.85;;;6.65;;
65558;SDS011;52203;51.998;5.140;2023-04-10T04:51:37;11.98;;;5.80;;
65558;SDS011;52203;51.998;5.140;2023-04-10T04:54:03;11.68;;;6.43;;
65558;SDS011;52203;51.998;5.140;2023-04-10T04:56:29;13.10;;;7.10;;
65558;SDS011;52203;51.998;5.140;2023-04-10T04:58:54;13.32;;;6.80;;
65558;SDS011;52203;51.998;5.140;2023-04-10T05:01:20;15.88;;;7.18;;
65558;SDS011;52203;51.998;5.140;2023-04-10T05:03:45;12.55;;;6.93;;
65558;SDS011;52203;51.998;5.140;2023-04-10T05:06:11;12.32;;;7.20;;
65558;SDS011;52203;51.998;5.140;2023-04-10T05:08:36;13.90;;;7.10;;
65558;SDS011;52203;51.998;5.140;2023-04-10T05:11:02;15.18;;;7.38;;
65558;SDS011;52203;51.998;5.140;2023-04-10T05:13:27;13.07;;;6.88;;
65558;SDS011;52203;51.998;5.140;2023-04-10T05:15:53;15.13;;;7.40;;
65558;SDS011;52203;51.998;5.140;2023-04-10T05:18:18;17.67;;;7.40;;
65558;SDS011;52203;51.998;5.140;2023-04-10T05:20:47;14.77;;;7.18;;
65558;SDS011;52203;51.998;5.140;2023-04-10T05:23:13;14.88;;;7.45;;
65558;SDS011;52203;51.998;5.140;2023-04-10T05:25:39;13.52;;;6.43;;
65558;SDS011;52203;51.998;5.140;2023-04-10T05:28:05;13.18;;;6.45;;
65558;SDS011;52203;51.998;5.140;2023-04-10T05:30:31;17.25;;;7.35;;
65558;SDS011;52203;51.998;5.140;2023-04-10T05:32:56;16.10;;;7.95;;
65558;SDS011;52203;51.998;5.140;2023-04-10T05:35:22;18.13;;;7.55;;
65558;SDS011;52203;51.998;5.140;2023-04-10T05:37:47;16.95;;;8.10;;
65558;SDS011;52203;51.998;5.140;2023-04-10T05:40:13;15.43;;;7.50;;
65558;SDS011;52203;51.998;5.140;2023-04-10T05:42:38;15.50;;;7.15;;
65558;SDS011;52203;51.998;5.140;2023-04-10T05:45:04;15.65;;;7.50;;
65558;SDS011;52203;51.998;5.140;2023-04-10T05:47:30;12.20;;;7.07;;
65558;SDS011;52203;51.998;5.140;2023-04-10T05:49:55;15.35;;;7.25;;
65558;SDS011;52203;51.998;5.140;2023-04-10T05:52:21;17.02;;;7.93;;
65558;SDS011;52203;51.998;5.140;2023-04-10T05:54:46;13.65;;;7.38;;
65558;SDS011;52203;51.998;5.140;2023-04-10T05:57:12;14.63;;;7.07;;
65558;SDS011;52203;51.998;5.140;2023-04-10T05:59:37;12.80;;;7.13;;
65558;SDS011;52203;51.998;5.140;2023-04-10T06:02:03;15.98;;;7.93;;
65558;SDS011;52203;51.998;5.140;2023-04-10T06:04:28;16.45;;;7.70;;
65558;SDS011;52203;51.998;5.140;2023-04-10T06:06:54;14.10;;;7.28;;
65558;SDS011;52203;51.998;5.140;2023-04-10T06:09:19;14.18;;;7.20;;
65558;SDS011;52203;51.998;5.140;2023-04-10T06:11:45;14.70;;;7.22;;
65558;SDS011;52203;51.998;5.140;2023-04-10T06:14:10;14.10;;;7.72;;
65558;SDS011;52203;51.998;5.140;2023-04-10T06:16:36;14.23;;;7.40;;
65558;SDS011;52203;51.998;5.140;2023-04-10T06:19:01;15.98;;;7.80;;
65558;SDS011;52203;51.998;5.140;2023-04-10T06:21:27;13.75;;;7.18;;
65558;SDS011;52203;51.998;5.140;2023-04-10T06:23:52;14.27;;;7.30;;
65558;SDS011;52203;51.998;5.140;2023-04-10T06:26:18;14.52;;;7.32;;
65558;SDS011;52203;51.998;5.140;2023-04-10T06:28:43;14.43;;;7.05;;
65558;SDS011;52203;51.998;5.140;2023-04-10T06:31:09;13.25;;;6.85;;
65558;SDS011;52203;51.998;5.140;2023-04-10T06:33:37;12.50;;;6.90;;
65558;SDS011;52203;51.998;5.140;2023-04-10T06:36:02;13.07;;;6.85;;
65558;SDS011;52203;51.998;5.140;2023-04-10T06:38:29;14.15;;;7.47;;
65558;SDS011;52203;51.998;5.140;2023-04-10T06:40:55;16.02;;;7.72;;
65558;SDS011;52203;51.998;5.140;2023-04-10T06:43:21;13.63;;;7.47;;
65558;SDS011;52203;51.998;5.140;2023-04-10T06:45:46;14.75;;;7.63;;
65558;SDS011;52203;51.998;5.140;2023-04-10T06:48:11;15.68;;;7.45;;
65558;SDS011;52203;51.998;5.140;2023-04-10T06:50:37;14.05;;;7.43;;
65558;SDS011;52203;51.998;5.140;2023-04-10T06:53:02;13.40;;;6.88;;
65558;SDS011;52203;51.998;5.140;2023-04-10T06:55:28;12.88;;;6.75;;
65558;SDS011;52203;51.998;5.140;2023-04-10T06:57:54;12.52;;;7.25;;
65558;SDS011;52203;51.998;5.140;2023-04-10T07:00:20;13.93;;;7.10;;
65558;SDS011;52203;51.998;5.140;2023-04-10T07:02:46;16.27;;;7.78;;
65558;SDS011;52203;51.998;5.140;2023-04-10T07:05:12;13.40;;;7.13;;
65558;SDS011;52203;51.998;5.140;2023-04-10T07:07:38;13.82;;;7.20;;
65558;SDS011;52203;51.998;5.140;2023-04-10T07:10:03;15.65;;;8.32;;
65558;SDS011;52203;51.998;5.140;2023-04-10T07:12:31;13.57;;;7.95;;
65558;SDS011;52203;51.998;5.140;2023-04-10T07:14:56;13.23;;;7.38;;
65558;SDS011;52203;51.998;5.140;2023-04-10T07:17:22;14.18;;;7.70;;
65558;SDS011;52203;51.998;5.140;2023-04-10T07:19:48;11.85;;;6.75;;
65558;SDS011;52203;51.998;5.140;2023-04-10T07:22:13;15.90;;;8.05;;
65558;SDS011;52203;51.998;5.140;2023-04-10T07:24:39;14.18;;;7.05;;
65558;SDS011;52203;51.998;5.140;2023-04-10T07:27:05;14.20;;;7.07;;
65558;SDS011;52203;51.998;5.140;2023-04-10T07:29:30;11.68;;;6.57;;
65558;SDS011;52203;51.998;5.140;2023-04-10T07:31:56;13.55;;;7.03;;
65558;SDS011;52203;51.998;5.140;2023-04-10T07:34:21;11.88;;;6.63;;
65558;SDS011;52203;51.998;5.140;2023-04-10T07:36:48;12.55;;;6.65;;
65558;SDS011;52203;51.998;5.140;2023-04-10T07:39:13;12.93;;;6.75;;
65558;SDS011;52203;51.998;5.140;2023-04-10T07:41:39;9.98;;;5.90;;
65558;SDS011;52203;51.998;5.140;2023-04-10T07:44:04;13.60;;;6.72;;
65558;SDS011;52203;51.998;5.140;2023-04-10T07:46:30;13.20;;;6.90;;
65558;SDS011;52203;51.998;5.140;2023-04-10T07:48:55;10.02;;;6.00;;
65558;SDS011;52203;51.998;5.140;2023-04-10T07:51:21;12.70;;;6.03;;
65558;SDS011;52203;51.998;5.140;2023-04-10T07:53:47;12.18;;;6.72;;
65558;SDS011;52203;51.998;5.140;2023-04-10T07:56:16;13.18;;;6.10;;
65558;SDS011;52203;51.998;5.140;2023-04-10T07:58:43;10.32;;;5.82;;
65558;SDS011;52203;51.998;5.140;2023-04-10T08:01:09;11.98;;;6.30;;
65558;SDS011;52203;51.998;5.140;2023-04-10T08:03:41;11.68;;;6.53;;
65558;SDS011;52203;51.998;5.140;2023-04-10T08:06:08;10.02;;;5.63;;
65558;SDS011;52203;51.998;5.140;2023-04-10T08:08:35;14.88;;;6.13;;
65558;SDS011;52203;51.998;5.140;2023-04-10T08:11:20;10.75;;;6.32;;
65558;SDS011;52203;51.998;5.140;2023-04-10T08:13:48;12.63;;;6.93;;
65558;SDS011;52203;51.998;5.140;2023-04-10T08:16:17;12.05;;;6.32;;
65558;SDS011;52203;51.998;5.140;2023-04-10T08:18:43;12.20;;;6.53;;
65558;SDS011;52203;51.998;5.140;2023-04-10T08:21:09;11.32;;;6.57;;
65558;SDS011;52203;51.998;5.140;2023-04-10T08:23:35;11.10;;;6.07;;
65558;SDS011;52203;51.998;5.140;2023-04-10T08:26:01;11.23;;;6.78;;
65558;SDS011;52203;51.998;5.140;2023-04-10T08:28:27;10.73;;;6.07;;
65558;SDS011;52203;51.998;5.140;2023-04-10T08:30:53;12.82;;;6.90;;
65558;SDS011;52203;51.998;5.140;2023-04-10T08:33:19;11.43;;;6.30;;
65558;SDS011;52203;51.998;5.140;2023-04-10T08:35:48;13.00;;;6.88;;
65558;SDS011;52203;51.998;5.140;2023-04-10T08:38:17;11.55;;;6.35;;
65558;SDS011;52203;51.998;5.140;2023-04-10T08:40:53;11.38;;;6.38;;
65558;SDS011;52203;51.998;5.140;2023-04-10T08:43:19;11.90;;;6.10;;
65558;SDS011;52203;51.998;5.140;2023-04-10T08:45:45;12.50;;;6.72;;
65558;SDS011;52203;51.998;5.140;2023-04-10T08:48:11;13.30;;;6.90;;
65558;SDS011;52203;51.998;5.140;2023-04-10T08:50:40;10.75;;;6.13;;
65558;SDS011;52203;51.998;5.140;2023-04-10T08:53:08;12.18;;;6.55;;
65558;SDS011;52203;51.998;5.140;2023-04-10T08:55:35;13.15;;;6.47;;
65558;SDS011;52203;51.998;5.140;2023-04-10T08:58:02;12.23;;;6.22;;
65558;SDS011;52203;51.998;5.140;2023-04-10T09:00:32;10.93;;;6.05;;
65558;SDS011;52203;51.998;5.140;2023-04-10T09:02:59;12.85;;;7.10;;
65558;SDS011;52203;51.998;5.140;2023-04-10T09:05:28;13.88;;;7.20;;
65558;SDS011;52203;51.998;5.140;2023-04-10T09:07:55;13.18;;;6.97;;
65558;SDS011;52203;51.998;5.140;2023-04-10T09:10:21;11.45;;;6.57;;
65558;SDS011;52203;51.998;5.140;2023-04-10T09:12:48;11.95;;;6.45;;
65558;SDS011;52203;51.998;5.140;2023-04-10T09:15:14;11.77;;;6.55;;
65558;SDS011;52203;51.998;5.140;2023-04-10T09:17:53;11.85;;;6.30;;
65558;SDS011;52203;51.998;5.140;2023-04-10T09:20:20;15.00;;;7.13;;
65558;SDS011;52203;51.998;5.140;2023-04-10T09:22:47;13.68;;;6.90;;
65558;SDS011;52203;51.998;5.140;2023-04-10T09:25:29;11.57;;;6.85;;
65558;SDS011;52203;51.998;5.140;2023-04-10T09:28:07;11.43;;;6.15;;
65558;SDS011;52203;51.998;5.140;2023-04-10T09:30:40;12.38;;;6.30;;
65558;SDS011;52203;51.998;5.140;2023-04-10T09:33:22;11.73;;;6.80;;
65558;SDS011;52203;51.998;5.140;2023-04-10T09:35:51;12.73;;;7.13;;
65558;SDS011;52203;51.998;5.140;2023-04-10T09:38:18;11.27;;;6.47;;
65558;SDS011;52203;51.998;5.140;2023-04-10T09:40:45;11.73;;;6.65;;
65558;SDS011;52203;51.998;5.140;2023-04-10T09:45:51;12.30;;;6.47;;
65558;SDS011;52203;51.998;5.140;2023-04-10T09:48:18;10.52;;;5.93;;
65558;SDS011;52203;51.998;5.140;2023-04-10T09:50:44;11.23;;;6.13;;
65558;SDS011;52203;51.998;5.140;2023-04-10T09:53:10;11.85;;;6.03;;
65558;SDS011;52203;51.998;5.140;2023-04-10T09:55:37;13.52;;;7.07;;
65558;SDS011;52203;51.998;5.140;2023-04-10T09:58:04;12.48;;;6.72;;
65558;SDS011;52203;51.998;5.140;2023-04-10T10:00:31;12.90;;;6.78;;
65558;SDS011;52203;51.998;5.140;2023-04-10T10:03:06;13.07;;;6.70;;
65558;SDS011;52203;51.998;5.140;2023-04-10T10:05:36;11.00;;;6.35;;
65558;SDS011;52203;51.998;5.140;2023-04-10T10:08:08;11.98;;;6.18;;
65558;SDS011;52203;51.998;5.140;2023-04-10T10:10:36;10.20;;;5.90;;
65558;SDS011;52203;51.998;5.140;2023-04-10T10:16:20;11.63;;;6.80;;
65558;SDS011;52203;51.998;5.140;2023-04-10T10:18:54;10.07;;;5.90;;
65558;SDS011;52203;51.998;5.140;2023-04-10T10:21:45;10.38;;;5.80;;
65558;SDS011;52203;51.998;5.140;2023-04-10T10:24:11;11.63;;;6.45;;
65558;SDS011;52203;51.998;5.140;2023-04-10T10:26:38;10.98;;;6.30;;
65558;SDS011;52203;51.998;5.140;2023-04-10T10:29:05;11.02;;;6.32;;
65558;SDS011;52203;51.998;5.140;2023-04-10T10:31:34;11.30;;;6.05;;
65558;SDS011;52203;51.998;5.140;2023-04-10T10:34:01;9.57;;;6.18;;
65558;SDS011;52203;51.998;5.140;2023-04-10T10:36:29;8.93;;;5.72;;
65558;SDS011;52203;51.998;5.140;2023-04-10T10:42:04;10.38;;;5.72;;
65558;SDS011;52203;51.998;5.140;2023-04-10T10:47:11;10.60;;;5.97;;
65558;SDS011;52203;51.998;5.140;2023-04-10T10:55:36;10.30;;;6.22;;
65558;SDS011;52203;51.998;5.140;2023-04-10T10:57:59;10.43;;;5.82;;
65558;SDS011;52203;51.998;5.140;2023-04-10T11:00:26;10.05;;;6.07;;
65558;SDS011;52203;51.998;5.140;2023-04-10T11:05:53;10.10;;;5.78;;
65558;SDS011;52203;51.998;5.140;2023-04-10T11:10:58;10.35;;;5.80;;
65558;SDS011;52203;51.998;5.140;2023-04-10T11:13:30;10.65;;;5.53;;
65558;SDS011;52203;51.998;5.140;2023-04-10T11:16:00;9.50;;;5.32;;
65558;SDS011;52203;51.998;5.140;2023-04-10T11:21:14;9.07;;;5.30;;
65558;SDS011;52203;51.998;5.140;2023-04-10T11:28:57;10.40;;;5.85;;
65558;SDS011;52203;51.998;5.140;2023-04-10T11:31:23;10.55;;;5.55;;
65558;SDS011;52203;51.998;5.140;2023-04-10T11:33:59;8.80;;;5.40;;
65558;SDS011;52203;51.998;5.140;2023-04-10T11:36:30;8.32;;;5.35;;
65558;SDS011;52203;51.998;5.140;2023-04-10T11:41:38;9.55;;;5.80;;
65558;SDS011;52203;51.998;5.140;2023-04-10T11:44:06;9.95;;;5.57;;
65558;SDS011;52203;51.998;5.140;2023-04-10T11:46:36;8.60;;;5.63;;
65558;SDS011;52203;51.998;5.140;2023-04-10T11:49:03;8.18;;;5.30;;
65558;SDS011;52203;51.998;5.140;2023-04-10T11:51:30;9.48;;;5.80;;
65558;SDS011;52203;51.998;5.140;2023-04-10T11:57:05;7.63;;;5.10;;
65558;SDS011;52203;51.998;5.140;2023-04-10T11:59:36;7.78;;;4.65;;
65558;SDS011;52203;51.998;5.140;2023-04-10T12:04:41;8.95;;;5.20;;
65558;SDS011;52203;51.998;5.140;2023-04-10T12:07:08;8.30;;;5.50;;
65558;SDS011;52203;51.998;5.140;2023-04-10T12:09:34;8.82;;;5.10;;
65558;SDS011;52203;51.998;5.140;2023-04-10T12:17:02;7.80;;;5.07;;
65558;SDS011;52203;51.998;5.140;2023-04-10T12:19:29;7.40;;;5.25;;
65558;SDS011;52203;51.998;5.140;2023-04-10T12:21:56;8.60;;;5.18;;
65558;SDS011;52203;51.998;5.140;2023-04-10T12:27:20;7.50;;;4.53;;
65558;SDS011;52203;51.998;5.140;2023-04-10T12:29:50;6.70;;;4.53;;
65558;SDS011;52203;51.998;5.140;2023-04-10T12:32:17;8.45;;;4.35;;
65558;SDS011;52203;51.998;5.140;2023-04-10T12:34:56;8.90;;;4.68;;
65558;SDS011;52203;51.998;5.140;2023-04-10T12:37:22;5.78;;;4.00;;
65558;SDS011;52203;51.998;5.140;2023-04-10T12:40:08;8.10;;;4.43;;
65558;SDS011;52203;51.998;5.140;2023-04-10T12:42:38;7.65;;;4.30;;
65558;SDS011;52203;51.998;5.140;2023-04-10T12:45:04;8.60;;;4.60;;
65558;SDS011;52203;51.998;5.140;2023-04-10T12:47:33;8.65;;;4.55;;
65558;SDS011;52203;51.998;5.140;2023-04-10T12:50:09;7.00;;;3.97;;
65558;SDS011;52203;51.998;5.140;2023-04-10T12:52:40;8.25;;;4.70;;
65558;SDS011;52203;51.998;5.140;2023-04-10T12:55:13;9.02;;;4.85;;
65558;SDS011;52203;51.998;5.140;2023-04-10T12:57:44;6.72;;;4.38;;
65558;SDS011;52203;51.998;5.140;2023-04-10T13:00:15;8.65;;;4.55;;
65558;SDS011;52203;51.998;5.140;2023-04-10T13:02:41;5.78;;;3.80;;
65558;SDS011;52203;51.998;5.140;2023-04-10T13:05:08;7.80;;;4.22;;
65558;SDS011;52203;51.998;5.140;2023-04-10T13:07:33;7.47;;;4.40;;
65558;SDS011;52203;51.998;5.140;2023-04-10T13:10:00;8.10;;;4.50;;
65558;SDS011;52203;51.998;5.140;2023-04-10T13:12:26;5.80;;;4.10;;
65558;SDS011;52203;51.998;5.140;2023-04-10T13:14:53;7.13;;;4.35;;
65558;SDS011;52203;51.998;5.140;2023-04-10T13:17:20;6.05;;;4.22;;
65558;SDS011;52203;51.998;5.140;2023-04-10T13:19:46;5.88;;;3.90;;
65558;SDS011;52203;51.998;5.140;2023-04-10T13:22:12;6.90;;;4.47;;
65558;SDS011;52203;51.998;5.140;2023-04-10T13:24:38;6.70;;;4.35;;
65558;SDS011;52203;51.998;5.140;2023-04-10T13:27:04;8.90;;;4.50;;
65558;SDS011;52203;51.998;5.140;2023-04-10T13:29:30;7.03;;;4.55;;
65558;SDS011;52203;51.998;5.140;2023-04-10T13:31:55;7.57;;;4.80;;
65558;SDS011;52203;51.998;5.140;2023-04-10T13:34:21;7.22;;;4.30;;
65558;SDS011;52203;51.998;5.140;2023-04-10T13:36:46;7.85;;;4.50;;
65558;SDS011;52203;51.998;5.140;2023-04-10T13:39:12;8.63;;;4.28;;
65558;SDS011;52203;51.998;5.140;2023-04-10T13:41:38;7.35;;;4.80;;
65558;SDS011;52203;51.998;5.140;2023-04-10T13:44:03;8.93;;;4.63;;
65558;SDS011;52203;51.998;5.140;2023-04-10T13:46:29;6.55;;;4.53;;
65558;SDS011;52203;51.998;5.140;2023-04-10T13:48:55;9.18;;;4.85;;
65558;SDS011;52203;51.998;5.140;2023-04-10T13:51:24;8.60;;;4.72;;
65558;SDS011;52203;51.998;5.140;2023-04-10T13:53:49;8.02;;;5.00;;
65558;SDS011;52203;51.998;5.140;2023-04-10T13:56:15;9.95;;;5.70;;
65558;SDS011;52203;51.998;5.140;2023-04-10T13:58:41;8.52;;;4.43;;
65558;SDS011;52203;51.998;5.140;2023-04-10T14:01:07;7.75;;;4.88;;
65558;SDS011;52203;51.998;5.140;2023-04-10T14:03:33;10.20;;;4.75;;
65558;SDS011;52203;51.998;5.140;2023-04-10T14:06:00;6.80;;;4.50;;
65558;SDS011;52203;51.998;5.140;2023-04-10T14:08:29;9.95;;;5.00;;
65558;SDS011;52203;51.998;5.140;2023-04-10T14:10:57;6.80;;;4.20;;
65558;SDS011;52203;51.998;5.140;2023-04-10T14:13:22;9.10;;;5.05;;
65558;SDS011;52203;51.998;5.140;2023-04-10T14:15:50;7.43;;;5.10;;
65558;SDS011;52203;51.998;5.140;2023-04-10T14:18:17;8.77;;;4.80;;
65558;SDS011;52203;51.998;5.140;2023-04-10T14:20:44;7.75;;;4.68;;
65558;SDS011;52203;51.998;5.140;2023-04-10T14:23:14;8.55;;;5.00;;
65558;SDS011;52203;51.998;5.140;2023-04-10T14:25:43;6.80;;;4.20;;
65558;SDS011;52203;51.998;5.140;2023-04-10T14:28:09;8.13;;;4.95;;
65558;SDS011;52203;51.998;5.140;2023-04-10T14:30:48;8.93;;;4.68;;
65558;SDS011;52203;51.998;5.140;2023-04-10T14:33:15;7.22;;;4.38;;
65558;SDS011;52203;51.998;5.140;2023-04-10T14:35:42;8.00;;;5.00;;
65558;SDS011;52203;51.998;5.140;2023-04-10T14:38:08;8.18;;;4.80;;
65558;SDS011;52203;51.998;5.140;2023-04-10T14:40:35;7.90;;;4.93;;
65558;SDS011;52203;51.998;5.140;2023-04-10T14:43:01;9.45;;;4.72;;
65558;SDS011;52203;51.998;5.140;2023-04-10T14:45:26;8.77;;;4.88;;
65558;SDS011;52203;51.998;5.140;2023-04-10T14:47:52;8.70;;;5.05;;
65558;SDS011;52203;51.998;5.140;2023-04-10T14:50:20;7.57;;;4.50;;
65558;SDS011;52203;51.998;5.140;2023-04-10T14:52:50;7.80;;;5.05;;
65558;SDS011;52203;51.998;5.140;2023-04-10T14:55:16;7.07;;;4.28;;
65558;SDS011;52203;51.998;5.140;2023-04-10T14:57:42;8.45;;;4.82;;
65558;SDS011;52203;51.998;5.140;2023-04-10T15:00:08;8.27;;;4.88;;
65558;SDS011;52203;51.998;5.140;2023-04-10T15:02:36;8.40;;;4.93;;
65558;SDS011;52203;51.998;5.140;2023-04-10T15:05:04;7.40;;;4.65;;
65558;SDS011;52203;51.998;5.140;2023-04-10T15:07:31;9.05;;;5.18;;
65558;SDS011;52203;51.998;5.140;2023-04-10T15:09:58;7.90;;;4.60;;
65558;SDS011;52203;51.998;5.140;2023-04-10T15:12:27;8.70;;;5.60;;
65558;SDS011;52203;51.998;5.140;2023-04-10T15:14:52;9.10;;;5.10;;
65558;SDS011;52203;51.998;5.140;2023-04-10T15:17:20;7.72;;;5.10;;
65558;SDS011;52203;51.998;5.140;2023-04-10T15:19:47;7.05;;;4.60;;
65558;SDS011;52203;51.998;5.140;2023-04-10T15:22:14;9.25;;;4.95;;
65558;SDS011;52203;51.998;5.140;2023-04-10T15:24:41;7.82;;;5.13;;
65558;SDS011;52203;51.998;5.140;2023-04-10T15:27:07;9.43;;;5.15;;
65558;SDS011;52203;51.998;5.140;2023-04-10T15:29:37;8.00;;;5.28;;
65558;SDS011;52203;51.998;5.140;2023-04-10T15:32:06;8.45;;;5.40;;
65558;SDS011;52203;51.998;5.140;2023-04-10T15:34:36;7.63;;;4.93;;
65558;SDS011;52203;51.998;5.140;2023-04-10T15:37:02;10.48;;;5.40;;